Time;durP1;ratioP1;P1;durP2;ratioP2;P2;SDS_P1;SDS_P2;PMS_P1;PMS_P2;Temp;Humidity;BMP_temperature;BMP_pressure;BME280_temperature;BME280_humidity;BME280_pressure;Samples;Min_cycle;Max_cycle;Signal;HPM_P1;HPM_P2
2021/12/06 00:02:13;;;;;;;43.42;20.65;;;3.60;99.90;;;;;;5030573;28;20033;-61
2021/12/06 00:04:39;;;;;;;42.53;20.75;;;3.50;99.90;;;;;;5030612;28;20041;-61
2021/12/06 00:07:13;;;;;;;41.10;19.08;;;3.60;99.90;;;;;;5030935;28;20041;-61
2021/12/06 00:09:40;;;;;;;42.40;19.63;;;3.50;99.90;;;;;;5030801;28;20045;-61
2021/12/06 00:12:06;;;;;;;43.10;21.25;;;3.50;99.90;;;;;;5030495;28;20034;-61
2021/12/06 00:14:36;;;;;;;39.33;18.95;;;3.50;99.90;;;;;;5030527;28;20044;-61
2021/12/06 00:17:05;;;;;;;44.17;20.85;;;3.50;99.90;;;;;;5012879;28;20418;-61
2021/12/06 00:19:32;;;;;;;44.22;20.23;;;3.50;99.90;;;;;;5030416;28;20042;-61
2021/12/06 00:21:59;;;;;;;43.40;20.55;;;3.50;99.90;;;;;;5030306;28;20041;-61
2021/12/06 00:24:25;;;;;;;45.25;21.38;;;3.50;99.90;;;;;;5030427;28;20048;-62
2021/12/06 00:26:51;;;;;;;42.40;20.52;;;3.50;99.90;;;;;;5030499;28;20041;-61
2021/12/06 00:29:18;;;;;;;48.20;21.45;;;3.50;99.90;;;;;;5030253;28;20049;-60
2021/12/06 00:31:44;;;;;;;44.92;20.50;;;3.50;99.90;;;;;;5036852;28;20041;-61
2021/12/06 00:34:14;;;;;;;43.10;20.38;;;3.50;99.90;;;;;;5049891;28;20352;-61
2021/12/06 00:36:51;;;;;;;38.35;17.25;;;3.50;99.90;;;;;;5050245;28;20029;-62
2021/12/06 00:39:18;;;;;;;44.35;20.85;;;3.50;99.90;;;;;;5050119;28;20048;-60
2021/12/06 00:41:44;;;;;;;43.60;20.10;;;3.50;99.90;;;;;;5050118;28;20037;-61
2021/12/06 00:44:09;;;;;;;34.67;16.02;;;3.50;99.90;;;;;;5049867;28;20116;-61
2021/12/06 00:46:37;;;;;;;40.25;17.92;;;3.50;99.90;;;;;;5049763;28;20091;-60
2021/12/06 00:49:04;;;;;;;41.25;19.10;;;3.50;99.90;;;;;;5050044;28;20169;-60
2021/12/06 00:51:30;;;;;;;43.65;19.13;;;3.50;99.90;;;;;;5050052;28;20075;-60
2021/12/06 00:53:55;;;;;;;41.15;19.15;;;3.40;99.90;;;;;;5049686;28;20061;-61
2021/12/06 00:56:21;;;;;;;40.38;18.27;;;3.50;99.90;;;;;;5049565;28;20091;-61
2021/12/06 00:58:47;;;;;;;38.65;18.70;;;3.40;99.90;;;;;;5049521;28;20041;-61
2021/12/06 01:01:12;;;;;;;38.85;18.75;;;3.40;99.90;;;;;;5049652;28;20411;-62
2021/12/06 01:03:39;;;;;;;40.38;18.38;;;3.40;99.90;;;;;;5049862;28;20444;-60
2021/12/06 01:06:07;;;;;;;39.22;18.50;;;3.50;99.90;;;;;;5049908;28;20045;-60
2021/12/06 01:08:34;;;;;;;41.90;19.25;;;3.40;99.90;;;;;;5049627;28;20041;-60
2021/12/06 01:11:00;;;;;;;41.65;18.90;;;3.50;99.90;;;;;;5049708;28;20037;-60
2021/12/06 01:13:27;;;;;;;37.80;19.25;;;3.50;99.90;;;;;;5049306;28;20483;-60
2021/12/06 01:15:54;;;;;;;39.42;19.00;;;3.50;99.90;;;;;;5049997;28;20207;-61
2021/12/06 01:18:21;;;;;;;45.08;19.52;;;3.40;99.90;;;;;;5049542;28;20068;-61
2021/12/06 01:20:58;;;;;;;41.10;19.77;;;3.40;99.90;;;;;;5049544;28;20415;-60
2021/12/06 01:23:29;;;;;;;38.92;19.05;;;3.40;99.90;;;;;;5049471;28;20120;-60
2021/12/06 01:29:05;;;;;;;36.10;17.52;;;3.40;99.90;;;;;;5049407;28;20132;-61
2021/12/06 01:39:17;;;;;;;38.90;17.55;;;3.50;99.90;;;;;;5011770;28;20055;-61
2021/12/06 01:41:48;;;;;;;38.05;17.83;;;3.40;99.90;;;;;;5029561;28;20046;-61
2021/12/06 01:44:18;;;;;;;39.58;17.88;;;3.50;99.90;;;;;;5029421;28;20406;-61
2021/12/06 01:46:46;;;;;;;39.72;17.83;;;3.40;99.90;;;;;;5029414;28;20041;-61
2021/12/06 01:49:13;;;;;;;42.45;17.40;;;3.40;99.90;;;;;;5029364;28;20037;-60
2021/12/06 01:51:39;;;;;;;44.13;19.48;;;3.40;99.90;;;;;;5029452;28;20065;-61
2021/12/06 01:54:07;;;;;;;45.67;19.13;;;3.40;99.90;;;;;;5029256;28;20120;-60
2021/12/06 01:56:33;;;;;;;42.13;19.30;;;3.40;99.90;;;;;;5029451;28;20037;-61
2021/12/06 01:58:58;;;;;;;40.83;18.65;;;3.40;99.90;;;;;;5060141;28;20070;-61
2021/12/06 02:01:24;;;;;;;43.00;18.48;;;3.40;99.90;;;;;;5069001;28;20045;-61
2021/12/06 02:03:50;;;;;;;43.97;18.98;;;3.40;99.90;;;;;;5051023;28;20049;-61
2021/12/06 02:06:16;;;;;;;42.63;19.50;;;3.40;99.90;;;;;;5070727;28;20043;-61
2021/12/06 02:08:42;;;;;;;44.05;17.80;;;3.40;99.90;;;;;;5072944;28;20109;-61
2021/12/06 02:11:08;;;;;;;46.40;18.95;;;3.40;99.90;;;;;;5072843;28;20044;-61
2021/12/06 02:13:44;;;;;;;46.65;19.40;;;3.40;99.90;;;;;;5072495;28;20384;-61
2021/12/06 02:16:10;;;;;;;43.40;19.65;;;3.40;99.90;;;;;;5072898;28;20498;-61
2021/12/06 02:21:27;;;;;;;48.15;20.17;;;3.30;99.90;;;;;;5072670;28;20076;-61
2021/12/06 02:23:53;;;;;;;45.97;20.38;;;3.30;99.90;;;;;;5072404;28;20045;-61
2021/12/06 02:26:20;;;;;;;49.45;19.55;;;3.30;99.90;;;;;;5072400;28;20028;-61
2021/12/06 02:28:46;;;;;;;44.72;19.27;;;3.30;99.90;;;;;;5072659;28;20067;-61
2021/12/06 02:31:12;;;;;;;46.53;19.50;;;3.30;99.90;;;;;;5070151;28;20105;-60
2021/12/06 02:33:38;;;;;;;48.95;20.90;;;3.30;99.90;;;;;;5052298;28;20041;-61
2021/12/06 02:36:05;;;;;;;54.63;21.83;;;3.30;99.90;;;;;;5052363;28;20041;-61
2021/12/06 02:38:31;;;;;;;52.92;21.13;;;3.30;99.90;;;;;;5052478;28;20064;-61
2021/12/06 02:40:56;;;;;;;50.53;20.88;;;3.30;99.90;;;;;;5052297;28;20067;-61
2021/12/06 02:43:22;;;;;;;47.33;20.25;;;3.30;99.90;;;;;;5052266;28;20044;-62
2021/12/06 02:45:48;;;;;;;70.80;21.33;;;3.30;99.90;;;;;;5052372;28;20551;-61
2021/12/06 02:48:15;;;;;;;53.38;21.67;;;3.30;99.90;;;;;;5052170;28;20052;-61
2021/12/06 02:50:48;;;;;;;61.60;20.60;;;3.30;99.90;;;;;;5052231;28;20041;-60
2021/12/06 02:53:15;;;;;;;50.67;19.98;;;3.30;99.90;;;;;;5051897;28;20037;-60
2021/12/06 02:55:42;;;;;;;63.50;22.48;;;3.30;99.90;;;;;;5033981;28;20053;-60
2021/12/06 02:59:04;;;;;;;66.75;21.67;;;3.30;99.90;;;;;;5051693;28;20410;-61
2021/12/06 03:01:08;;;;;;;62.92;20.83;;;3.30;99.90;;;;;;5030278;28;20072;-60
2021/12/06 03:03:34;;;;;;;57.22;20.88;;;3.30;99.90;;;;;;5034004;28;20041;-61
2021/12/06 03:05:59;;;;;;;58.83;19.77;;;3.30;99.90;;;;;;5051507;28;20490;-61
2021/12/06 03:08:42;;;;;;;58.95;21.45;;;3.30;99.90;;;;;;5051863;28;20043;-61
2021/12/06 03:11:19;;;;;;;60.67;20.92;;;3.30;99.90;;;;;;5052230;28;20048;-61
2021/12/06 03:13:45;;;;;;;59.55;21.67;;;3.30;99.90;;;;;;5051499;28;20033;-61
2021/12/06 03:16:11;;;;;;;56.03;20.95;;;3.30;99.90;;;;;;5051618;28;20033;-61
2021/12/06 03:18:37;;;;;;;78.30;23.40;;;3.30;99.90;;;;;;5050720;28;20041;-61
2021/12/06 03:21:03;;;;;;;59.55;20.98;;;3.30;99.90;;;;;;5051847;28;20510;-61
2021/12/06 03:23:29;;;;;;;65.47;21.83;;;3.30;99.90;;;;;;5051536;28;20044;-61
2021/12/06 03:25:55;;;;;;;66.07;22.02;;;3.40;99.90;;;;;;5051512;28;20091;-61
2021/12/06 03:28:21;;;;;;;73.20;21.40;;;3.40;99.90;;;;;;5051202;28;20041;-61
2021/12/06 03:30:46;;;;;;;67.75;21.60;;;3.40;99.90;;;;;;5051418;28;20116;-61
2021/12/06 03:33:12;;;;;;;57.38;21.88;;;3.40;99.90;;;;;;5032039;28;20462;-61
2021/12/06 03:35:38;;;;;;;65.95;22.67;;;3.30;99.90;;;;;;5031432;28;20080;-61
2021/12/06 03:38:04;;;;;;;67.03;23.25;;;3.40;99.90;;;;;;5031178;28;20121;-61
2021/12/06 03:40:29;;;;;;;69.05;23.70;;;3.40;99.90;;;;;;5031387;28;20090;-61
2021/12/06 03:42:55;;;;;;;71.03;23.00;;;3.40;99.90;;;;;;5031056;28;20103;-61
2021/12/06 03:45:22;;;;;;;65.40;22.27;;;3.40;99.90;;;;;;5033510;28;20045;-61
2021/12/06 03:47:47;;;;;;;67.15;21.45;;;3.40;99.90;;;;;;5050597;28;20450;-61
2021/12/06 03:50:14;;;;;;;74.32;23.20;;;3.40;99.90;;;;;;5049257;28;20037;-61
2021/12/06 03:52:40;;;;;;;79.68;22.42;;;3.40;99.90;;;;;;5030708;28;20048;-61
2021/12/06 03:55:07;;;;;;;70.13;22.85;;;3.40;99.90;;;;;;5031574;28;20033;-60
2021/12/06 03:57:33;;;;;;;74.45;24.70;;;3.40;99.90;;;;;;5050745;28;20041;-61
2021/12/06 03:59:59;;;;;;;64.45;23.63;;;3.40;99.90;;;;;;5050653;28;20041;-61
2021/12/06 04:02:27;;;;;;;77.32;23.23;;;3.40;99.90;;;;;;5050574;28;20036;-61
2021/12/06 04:04:53;;;;;;;70.57;23.45;;;3.40;99.90;;;;;;5050742;28;20037;-61
2021/12/06 04:07:19;;;;;;;69.53;23.33;;;3.30;99.90;;;;;;5048317;28;20555;-60
2021/12/06 04:09:44;;;;;;;73.63;24.38;;;3.40;99.90;;;;;;5030650;28;20038;-61
2021/12/06 04:12:12;;;;;;;72.47;23.65;;;3.40;99.90;;;;;;5048116;28;20439;-61
2021/12/06 04:14:38;;;;;;;75.00;23.38;;;3.40;99.90;;;;;;5050524;28;20496;-61
2021/12/06 04:17:04;;;;;;;78.88;24.45;;;3.40;99.90;;;;;;5037031;28;20037;-60
2021/12/06 04:19:31;;;;;;;78.50;24.25;;;3.40;99.90;;;;;;5044615;28;20036;-61
2021/12/06 04:21:57;;;;;;;71.88;23.17;;;3.40;99.90;;;;;;5050050;28;20410;-61
2021/12/06 04:24:23;;;;;;;79.53;23.92;;;3.40;99.90;;;;;;5050471;28;20036;-60
2021/12/06 04:26:48;;;;;;;82.93;25.38;;;3.40;99.90;;;;;;5050265;28;20044;-61
2021/12/06 04:29:14;;;;;;;74.80;24.10;;;3.40;99.90;;;;;;5031537;28;20052;-61
2021/12/06 04:31:50;;;;;;;79.18;24.60;;;3.40;99.90;;;;;;5043982;28;20084;-61
2021/12/06 04:34:16;;;;;;;82.32;23.33;;;3.40;99.90;;;;;;5030407;28;20099;-61
2021/12/06 04:36:43;;;;;;;81.75;25.73;;;3.40;99.90;;;;;;5012620;28;20045;-61
2021/12/06 04:39:12;;;;;;;89.70;24.92;;;3.50;99.90;;;;;;5030305;28;20080;-61
2021/12/06 04:41:39;;;;;;;89.70;25.35;;;3.40;99.90;;;;;;5030213;28;20041;-61
2021/12/06 04:44:05;;;;;;;90.85;26.88;;;3.50;99.90;;;;;;5029815;28;20041;-61
2021/12/06 04:46:30;;;;;;;80.93;25.08;;;3.40;99.90;;;;;;5030225;28;20095;-61
2021/12/06 04:48:56;;;;;;;81.35;25.08;;;3.40;99.90;;;;;;5030091;28;20568;-61
2021/12/06 04:51:22;;;;;;;85.38;25.50;;;3.50;99.90;;;;;;5012578;28;20047;-61
2021/12/06 04:53:50;;;;;;;97.03;28.00;;;3.40;99.90;;;;;;5029984;28;20045;-61
2021/12/06 04:56:32;;;;;;;86.25;27.20;;;3.50;99.90;;;;;;5029797;28;20565;-61
2021/12/06 04:59:17;;;;;;;81.72;26.17;;;3.50;99.90;;;;;;5030073;28;20045;-61
2021/12/06 05:01:46;;;;;;;92.80;26.83;;;3.40;99.90;;;;;;5030022;28;20091;-61
2021/12/06 05:04:24;;;;;;;85.00;25.92;;;3.50;99.90;;;;;;5029752;28;20496;-61
2021/12/06 05:06:55;;;;;;;84.57;25.65;;;3.50;99.90;;;;;;5012650;28;20132;-61
2021/12/06 05:09:25;;;;;;;93.82;26.70;;;3.50;99.90;;;;;;5029935;28;20045;-61
2021/12/06 05:11:51;;;;;;;82.68;25.30;;;3.50;99.90;;;;;;5029814;28;20083;-61
2021/12/06 05:14:18;;;;;;;85.25;26.83;;;3.50;99.90;;;;;;5012409;28;20503;-61
2021/12/06 05:16:44;;;;;;;80.70;25.70;;;3.50;99.90;;;;;;5029682;28;20048;-61
2021/12/06 05:19:10;;;;;;;82.63;25.15;;;3.50;99.90;;;;;;5029635;28;20041;-61
2021/12/06 05:21:36;;;;;;;79.18;25.13;;;3.50;99.90;;;;;;5029575;28;20525;-61
2021/12/06 05:24:04;;;;;;;73.30;23.25;;;3.50;99.90;;;;;;5029771;28;20104;-60
2021/12/06 05:26:30;;;;;;;73.25;25.15;;;3.50;99.90;;;;;;5029530;28;20569;-61
2021/12/06 05:28:59;;;;;;;68.38;25.60;;;3.50;99.90;;;;;;5029629;28;20038;-61
2021/12/06 05:31:26;;;;;;;72.43;24.33;;;3.50;99.90;;;;;;5033835;28;20060;-61
2021/12/06 05:33:56;;;;;;;69.20;24.23;;;3.60;99.90;;;;;;5049269;28;20041;-61
2021/12/06 05:36:22;;;;;;;67.05;24.40;;;3.60;99.90;;;;;;5049681;28;20051;-62
2021/12/06 05:38:53;;;;;;;63.25;23.20;;;3.50;99.90;;;;;;5049516;28;20059;-61
2021/12/06 05:41:19;;;;;;;64.88;22.17;;;3.50;99.90;;;;;;5051076;28;20072;-61
2021/12/06 05:43:45;;;;;;;69.47;24.77;;;3.50;99.90;;;;;;5053360;28;20041;-60
2021/12/06 05:46:11;;;;;;;64.28;24.48;;;3.50;99.90;;;;;;5053432;28;20048;-61
2021/12/06 05:48:37;;;;;;;62.13;23.60;;;3.50;99.90;;;;;;5052868;28;20044;-61
2021/12/06 05:51:03;;;;;;;64.10;23.38;;;3.50;99.90;;;;;;5053140;28;20032;-61
2021/12/06 05:53:29;;;;;;;69.07;23.58;;;3.40;99.90;;;;;;5053233;28;20033;-60
2021/12/06 05:55:54;;;;;;;57.72;21.85;;;3.50;99.90;;;;;;5053251;28;20135;-60
2021/12/06 05:58:23;;;;;;;62.58;22.73;;;3.50;99.90;;;;;;5052970;28;20731;-61
2021/12/06 06:00:49;;;;;;;66.47;23.23;;;3.50;99.90;;;;;;5052904;28;20045;-61
2021/12/06 06:03:15;;;;;;;63.72;22.70;;;3.50;99.90;;;;;;5052922;28;20041;-61
2021/12/06 06:05:41;;;;;;;72.43;25.15;;;3.50;99.90;;;;;;5053290;28;20049;-61
2021/12/06 06:08:07;;;;;;;64.60;23.38;;;3.50;99.90;;;;;;5052982;28;20124;-61
2021/12/06 06:10:34;;;;;;;61.67;21.75;;;3.50;99.90;;;;;;5034946;28;20040;-61
2021/12/06 06:13:01;;;;;;;67.22;24.58;;;3.50;99.90;;;;;;5052614;28;20044;-62
2021/12/06 06:15:29;;;;;;;68.85;23.77;;;3.40;99.90;;;;;;5052632;28;20045;-61
2021/12/06 06:17:55;;;;;;;69.82;24.90;;;3.30;99.90;;;;;;5051921;28;20033;-61
2021/12/06 06:20:26;;;;;;;72.13;24.05;;;3.30;99.90;;;;;;5049701;28;20049;-60
2021/12/06 06:22:52;;;;;;;73.68;24.90;;;3.30;99.90;;;;;;5049589;28;20037;-61
2021/12/06 06:25:18;;;;;;;76.60;25.40;;;3.30;99.90;;;;;;5049801;28;20098;-61
2021/12/06 06:27:44;;;;;;;75.15;24.73;;;3.20;99.90;;;;;;5049694;28;20049;-60
2021/12/06 06:30:11;;;;;;;70.28;23.45;;;3.20;99.90;;;;;;5049038;28;20045;-60
2021/12/06 06:32:37;;;;;;;68.82;23.67;;;3.20;99.90;;;;;;5035455;28;20091;-61
2021/12/06 06:35:03;;;;;;;71.22;22.52;;;3.20;99.90;;;;;;5029336;28;20049;-61
2021/12/06 06:37:29;;;;;;;65.88;23.55;;;3.10;99.90;;;;;;5029478;28;20128;-61
2021/12/06 06:39:55;;;;;;;70.53;23.42;;;3.10;99.90;;;;;;5029367;28;20121;-61
2021/12/06 06:42:24;;;;;;;75.78;25.30;;;3.10;99.90;;;;;;5029010;28;20775;-61
2021/12/06 06:44:54;;;;;;;76.53;23.40;;;3.10;99.90;;;;;;5029110;28;20112;-60
2021/12/06 06:47:21;;;;;;;65.32;22.88;;;3.10;99.90;;;;;;5011595;28;20129;-60
2021/12/06 06:49:47;;;;;;;72.63;24.27;;;3.10;99.90;;;;;;5011692;28;20596;-60
2021/12/06 06:52:13;;;;;;;66.30;23.75;;;3.10;99.90;;;;;;5010673;28;20041;-60
2021/12/06 06:54:39;;;;;;;71.28;23.42;;;3.10;99.90;;;;;;5028676;28;20136;-61
2021/12/06 06:57:05;;;;;;;77.10;24.15;;;3.10;99.90;;;;;;5028842;28;20759;-61
2021/12/06 06:59:30;;;;;;;74.55;22.55;;;3.10;99.90;;;;;;5029006;28;20043;-61
2021/12/06 07:01:57;;;;;;;75.85;25.23;;;3.20;99.90;;;;;;5029238;28;20652;-60
2021/12/06 07:04:22;;;;;;;69.57;23.08;;;3.20;99.90;;;;;;5011226;28;20083;-61
2021/12/06 07:06:49;;;;;;;68.53;24.17;;;3.20;99.90;;;;;;5011148;28;20081;-61
2021/12/06 07:09:15;;;;;;;66.65;23.08;;;3.20;99.90;;;;;;5013018;28;20052;-61
2021/12/06 07:11:44;;;;;;;74.00;24.65;;;3.20;99.90;;;;;;5030511;28;20112;-61
2021/12/06 07:14:10;;;;;;;63.83;23.42;;;3.10;99.90;;;;;;5031462;28;20041;-61
2021/12/06 07:16:36;;;;;;;72.65;23.50;;;3.10;99.90;;;;;;5031308;28;20042;-61
2021/12/06 07:19:02;;;;;;;69.20;23.67;;;3.20;99.90;;;;;;5031323;28;20041;-61
2021/12/06 07:21:28;;;;;;;67.32;22.38;;;3.20;99.90;;;;;;5031706;28;20526;-61
2021/12/06 07:23:53;;;;;;;64.70;22.58;;;3.20;99.90;;;;;;5031394;28;20037;-61
2021/12/06 07:26:20;;;;;;;65.03;22.92;;;3.20;99.90;;;;;;5031418;28;20073;-60
2021/12/06 07:28:48;;;;;;;63.00;23.15;;;3.20;99.90;;;;;;5031575;28;20042;-61
2021/12/06 07:31:15;;;;;;;78.13;26.67;;;3.20;99.90;;;;;;5031826;28;20391;-61
2021/12/06 07:33:43;;;;;;;79.53;27.38;;;3.20;99.90;;;;;;5031583;28;20116;-61
2021/12/06 07:36:09;;;;;;;78.25;28.77;;;3.20;99.90;;;;;;5031532;28;20520;-61
2021/12/06 07:38:37;;;;;;;81.07;28.98;;;3.10;99.90;;;;;;5031240;28;20458;-61
2021/12/06 07:41:07;;;;;;;88.40;31.27;;;3.10;99.90;;;;;;5031254;28;20087;-61
2021/12/06 07:43:33;;;;;;;87.60;31.42;;;3.10;99.90;;;;;;5031420;28;20081;-61
2021/12/06 07:45:59;;;;;;;84.05;30.67;;;3.10;99.90;;;;;;5031379;28;20053;-61
2021/12/06 07:48:24;;;;;;;90.78;32.05;;;3.10;99.90;;;;;;5031084;28;20037;-62
2021/12/06 07:50:50;;;;;;;89.05;31.52;;;3.10;99.90;;;;;;5035571;28;20037;-60
2021/12/06 07:53:16;;;;;;;88.28;30.30;;;3.10;99.90;;;;;;5050727;28;20040;-61
2021/12/06 07:55:41;;;;;;;87.18;29.63;;;3.10;99.90;;;;;;5051269;28;20123;-62
2021/12/06 07:58:08;;;;;;;92.70;31.10;;;3.00;99.90;;;;;;5058336;28;20087;-62
2021/12/06 08:00:38;;;;;;;97.28;32.28;;;3.00;99.90;;;;;;5070865;28;20097;-61
2021/12/06 08:03:06;;;;;;;94.47;30.48;;;2.90;99.90;;;;;;5070720;28;20117;-61
2021/12/06 08:05:33;;;;;;;98.32;32.80;;;2.90;99.90;;;;;;5070748;28;20048;-61
2021/12/06 08:08:07;;;;;;;101.72;32.10;;;2.90;99.90;;;;;;5070203;28;20048;-62
2021/12/06 08:10:36;;;;;;;97.05;28.80;;;2.90;99.90;;;;;;5070568;28;20512;-61
2021/12/06 08:13:02;;;;;;;81.65;26.80;;;3.00;99.90;;;;;;5069862;28;20044;-61
2021/12/06 08:15:28;;;;;;;80.47;27.55;;;2.90;99.90;;;;;;5070301;28;20040;-61
2021/12/06 08:17:54;;;;;;;89.85;26.73;;;2.90;99.90;;;;;;5069636;28;20406;-62
2021/12/06 08:20:19;;;;;;;68.00;24.45;;;2.90;99.90;;;;;;5050129;28;20490;-61
2021/12/06 08:22:45;;;;;;;65.53;22.42;;;3.00;99.90;;;;;;5050668;28;20068;-61
2021/12/06 08:25:12;;;;;;;62.47;20.63;;;3.00;99.90;;;;;;5050654;28;20116;-61
2021/12/06 08:27:38;;;;;;;65.13;21.42;;;3.00;99.90;;;;;;5050430;28;20045;-61
2021/12/06 08:30:05;;;;;;;62.28;22.77;;;3.00;99.90;;;;;;5050691;28;20116;-61
2021/12/06 08:32:31;;;;;;;58.95;21.55;;;3.00;99.90;;;;;;5049860;28;20037;-60
2021/12/06 08:34:57;;;;;;;62.42;21.92;;;3.10;99.90;;;;;;5049532;28;20040;-60
2021/12/06 08:37:23;;;;;;;52.83;20.58;;;3.10;99.90;;;;;;5048581;28;20036;-60
2021/12/06 08:39:49;;;;;;;55.80;20.75;;;3.10;99.90;;;;;;5048710;28;20427;-61
2021/12/06 08:42:15;;;;;;;50.10;19.80;;;3.10;99.90;;;;;;5048682;28;20127;-61
2021/12/06 08:44:41;;;;;;;53.80;20.27;;;3.00;99.90;;;;;;5048758;28;20090;-60
2021/12/06 08:47:06;;;;;;;54.33;19.73;;;3.00;99.90;;;;;;5048595;28;20037;-61
2021/12/06 08:49:32;;;;;;;54.85;19.73;;;3.00;99.90;;;;;;5030758;28;20656;-62
2021/12/06 08:51:58;;;;;;;58.95;20.20;;;3.10;99.90;;;;;;5049967;28;20068;-61
2021/12/06 08:54:29;;;;;;;64.82;20.42;;;3.10;99.90;;;;;;5050233;28;20564;-61
2021/12/06 08:56:57;;;;;;;56.00;19.00;;;3.10;99.90;;;;;;5049960;28;20037;-61
2021/12/06 08:59:24;;;;;;;58.28;20.20;;;3.10;99.90;;;;;;5050054;28;20132;-60
2021/12/06 09:01:50;;;;;;;49.90;18.55;;;3.20;99.90;;;;;;5049948;28;20045;-60
2021/12/06 09:04:16;;;;;;;48.08;18.65;;;3.20;99.90;;;;;;5049800;28;20478;-61
2021/12/06 09:06:45;;;;;;;54.30;19.95;;;3.30;99.90;;;;;;5050003;28;20051;-60
2021/12/06 09:09:12;;;;;;;45.72;18.30;;;3.30;99.90;;;;;;5049691;28;20053;-61
2021/12/06 09:11:40;;;;;;;50.97;20.00;;;3.40;99.90;;;;;;5049690;28;20040;-61
2021/12/06 09:14:06;;;;;;;45.35;17.40;;;3.40;99.90;;;;;;5049822;28;20044;-61
2021/12/06 09:16:33;;;;;;;41.97;16.00;;;3.40;99.90;;;;;;5053969;28;20098;-60
2021/12/06 09:19:00;;;;;;;46.50;17.20;;;3.40;99.90;;;;;;5056301;28;20071;-61
2021/12/06 09:21:26;;;;;;;40.00;16.48;;;3.30;99.90;;;;;;5038504;28;20081;-61
2021/12/06 09:23:55;;;;;;;46.30;16.08;;;3.30;99.90;;;;;;5056466;28;20076;-61
2021/12/06 09:26:20;;;;;;;42.83;15.85;;;3.30;99.90;;;;;;5056500;28;20045;-61
2021/12/06 09:28:46;;;;;;;38.92;15.02;;;3.40;99.90;;;;;;5056207;28;20039;-60
2021/12/06 09:31:15;;;;;;;33.70;15.25;;;3.40;99.90;;;;;;5050886;28;20534;-60
2021/12/06 09:33:41;;;;;;;39.80;16.15;;;3.40;99.90;;;;;;5018391;28;20037;-60
2021/12/06 09:36:07;;;;;;;40.30;16.38;;;3.30;99.90;;;;;;5036213;28;20692;-61
2021/12/06 09:38:37;;;;;;;39.72;15.70;;;3.30;99.90;;;;;;5018418;28;20099;-61
2021/12/06 09:41:08;;;;;;;40.47;15.83;;;3.40;99.90;;;;;;5036184;28;20503;-60
2021/12/06 09:43:38;;;;;;;41.58;17.48;;;3.50;99.90;;;;;;5035832;28;20392;-60
2021/12/06 09:46:05;;;;;;;39.80;17.05;;;3.50;99.90;;;;;;5036014;28;20518;-61
2021/12/06 09:48:30;;;;;;;42.67;16.52;;;3.60;99.90;;;;;;5036279;28;20034;-61
2021/12/06 09:51:01;;;;;;;41.75;17.05;;;3.60;99.90;;;;;;5036167;28;20457;-60
2021/12/06 09:53:30;;;;;;;39.50;17.27;;;3.60;99.90;;;;;;5035899;28;20033;-61
2021/12/06 09:56:01;;;;;;;37.00;15.90;;;3.60;99.90;;;;;;5036015;28;20034;-61
2021/12/06 09:58:26;;;;;;;38.85;16.95;;;3.60;99.90;;;;;;5035797;28;20091;-60
2021/12/06 10:00:57;;;;;;;36.88;16.08;;;3.50;99.90;;;;;;5034984;28;20598;-61
2021/12/06 10:03:26;;;;;;;41.55;17.05;;;3.60;99.90;;;;;;5035895;28;20042;-61
2021/12/06 10:05:54;;;;;;;44.25;16.85;;;3.60;99.90;;;;;;5035934;28;20049;-61
2021/12/06 10:08:20;;;;;;;45.72;19.00;;;3.70;99.90;;;;;;5035896;28;20120;-60
2021/12/06 10:10:46;;;;;;;47.67;20.58;;;3.90;99.90;;;;;;5035849;28;20038;-60
2021/12/06 10:13:11;;;;;;;49.05;20.60;;;4.00;99.90;;;;;;5035321;28;20041;-61
2021/12/06 10:15:37;;;;;;;56.75;24.95;;;4.10;99.90;;;;;;5036014;28;20037;-60
2021/12/06 10:18:03;;;;;;;46.35;18.88;;;4.20;99.90;;;;;;5035911;28;20400;-61
2021/12/06 10:20:30;;;;;;;48.95;20.33;;;4.20;99.90;;;;;;5036024;28;20048;-61
2021/12/06 10:22:56;;;;;;;44.45;17.77;;;4.30;99.90;;;;;;5035686;28;20128;-61
2021/12/06 10:25:35;;;;;;;36.20;15.40;;;4.30;99.90;;;;;;5035440;28;20511;-61
2021/12/06 10:28:04;;;;;;;42.58;16.70;;;4.10;99.90;;;;;;5033571;28;20041;-61
2021/12/06 10:30:32;;;;;;;38.35;16.08;;;4.10;99.90;;;;;;5032866;28;20038;-61
2021/12/06 10:33:15;;;;;;;41.33;17.30;;;4.10;99.90;;;;;;5049441;28;20037;-61
2021/12/06 10:35:45;;;;;;;39.42;16.60;;;4.10;99.90;;;;;;5052319;28;20112;-61
2021/12/06 10:38:17;;;;;;;41.03;16.55;;;4.10;99.90;;;;;;5052120;28;20052;-61
2021/12/06 10:40:42;;;;;;;37.72;15.40;;;4.10;99.90;;;;;;5052578;28;20092;-61
2021/12/06 10:43:11;;;;;;;35.00;14.70;;;4.20;99.90;;;;;;5033392;28;20056;-61
2021/12/06 10:45:44;;;;;;;39.80;16.85;;;4.30;99.90;;;;;;5052335;28;20041;-61
2021/12/06 10:48:12;;;;;;;36.85;14.73;;;4.40;99.90;;;;;;5052064;28;20048;-61
2021/12/06 10:50:43;;;;;;;34.67;14.77;;;4.60;99.90;;;;;;5052018;28;20048;-61
2021/12/06 10:53:11;;;;;;;33.83;15.35;;;4.60;99.90;;;;;;5034243;28;20060;-61
2021/12/06 10:55:37;;;;;;;32.60;14.45;;;4.70;99.90;;;;;;5052094;28;20084;-61
2021/12/06 10:58:11;;;;;;;33.80;14.77;;;4.60;99.90;;;;;;5051891;28;20159;-61
2021/12/06 11:00:45;;;;;;;33.58;14.25;;;4.50;99.90;;;;;;5051937;28;20148;-61
2021/12/06 11:03:21;;;;;;;29.95;13.93;;;4.40;99.90;;;;;;5033619;28;20051;-61
2021/12/06 11:05:51;;;;;;;32.17;13.57;;;4.40;99.90;;;;;;5052064;28;20059;-61
2021/12/06 11:08:18;;;;;;;31.38;13.18;;;4.50;99.90;;;;;;5033783;28;20577;-61
2021/12/06 11:10:58;;;;;;;37.22;14.55;;;4.50;99.90;;;;;;5051527;28;20422;-61
2021/12/06 11:13:30;;;;;;;31.63;13.98;;;4.40;99.90;;;;;;5051297;28;20037;-61
2021/12/06 11:15:58;;;;;;;33.42;14.15;;;4.40;99.90;;;;;;5052014;28;20032;-61
2021/12/06 11:18:43;;;;;;;35.40;14.20;;;4.40;99.90;;;;;;5034090;28;20045;-61
2021/12/06 11:21:17;;;;;;;38.00;14.38;;;4.50;99.90;;;;;;5051657;28;20083;-61
2021/12/06 11:24:09;;;;;;;39.10;15.27;;;4.50;99.90;;;;;;5051196;28;20052;-61
2021/12/06 11:26:46;;;;;;;35.78;15.00;;;4.50;99.90;;;;;;5051678;28;20112;-61
2021/12/06 11:29:41;;;;;;;35.00;14.02;;;4.50;99.90;;;;;;5051735;28;20044;-61
2021/12/06 11:32:21;;;;;;;36.70;14.85;;;4.50;99.90;;;;;;5040227;28;20129;-61
2021/12/06 11:34:49;;;;;;;43.10;16.17;;;4.50;99.90;;;;;;5031667;28;20041;-61
2021/12/06 11:37:22;;;;;;;40.42;15.63;;;4.50;99.90;;;;;;5031360;28;20045;-61
2021/12/06 11:40:02;;;;;;;41.45;16.10;;;4.60;99.90;;;;;;5030944;28;20495;-61
2021/12/06 11:42:28;;;;;;;42.40;16.50;;;4.60;99.90;;;;;;5030991;28;20136;-61
2021/12/06 11:44:54;;;;;;;31.95;14.93;;;4.60;99.90;;;;;;5030973;28;20045;-61
2021/12/06 11:47:20;;;;;;;38.63;16.35;;;4.60;99.90;;;;;;5029921;28;20041;-61
2021/12/06 11:49:55;;;;;;;38.35;16.20;;;4.60;99.90;;;;;;5029595;28;20045;-61
2021/12/06 11:52:32;;;;;;;36.70;14.52;;;4.70;99.90;;;;;;5029703;28;20049;-61
2021/12/06 11:55:04;;;;;;;38.83;15.32;;;4.70;99.90;;;;;;5029879;28;20041;-61
2021/12/06 11:57:42;;;;;;;36.60;15.45;;;4.70;99.90;;;;;;5029731;28;20041;-61
2021/12/06 12:00:13;;;;;;;37.00;16.27;;;4.70;99.90;;;;;;5030010;28;20065;-61
2021/12/06 12:03:00;;;;;;;42.35;16.67;;;4.70;99.90;;;;;;5030235;28;20037;-61
2021/12/06 12:05:36;;;;;;;42.42;17.10;;;4.70;99.90;;;;;;5030720;28;20037;-61
2021/12/06 12:08:11;;;;;;;41.00;16.17;;;4.70;99.90;;;;;;5030487;28;20444;-61
2021/12/06 12:10:38;;;;;;;39.85;17.15;;;4.70;99.90;;;;;;5031086;28;20065;-61
2021/12/06 12:13:10;;;;;;;41.22;17.52;;;4.70;99.90;;;;;;5030515;28;20042;-61
2021/12/06 12:15:35;;;;;;;;;;;4.80;99.90;;;;;;5031018;28;20391;-61
2021/12/06 12:18:01;;;;;;;43.45;16.98;;;4.80;99.90;;;;;;5030416;28;20001;-61
2021/12/06 12:20:28;;;;;;;39.25;17.00;;;4.80;99.90;;;;;;5030538;28;20037;-62
2021/12/06 12:22:57;;;;;;;43.30;16.45;;;4.80;99.90;;;;;;5030504;28;20054;-61
2021/12/06 12:25:32;;;;;;;44.55;18.20;;;4.80;99.90;;;;;;5012921;28;20041;-61
2021/12/06 12:30:31;;;;;;;40.75;18.13;;;4.90;99.90;;;;;;5030182;28;20068;-61
2021/12/06 12:32:57;;;;;;;47.00;19.00;;;4.90;99.90;;;;;;5047187;28;20041;-61
2021/12/06 12:35:24;;;;;;;40.17;17.50;;;4.90;99.90;;;;;;5050483;28;20086;-61
2021/12/06 12:37:51;;;;;;;43.65;18.95;;;4.90;99.90;;;;;;5050114;28;20052;-61
2021/12/06 12:40:22;;;;;;;48.88;20.15;;;4.90;99.90;;;;;;5032225;28;20532;-61
2021/12/06 12:42:57;;;;;;;52.28;20.95;;;5.00;99.90;;;;;;5049966;28;20048;-61
2021/12/06 12:45:23;;;;;;;56.70;23.88;;;4.80;99.90;;;;;;5050116;28;20052;-61
2021/12/06 12:47:55;;;;;;;55.28;23.20;;;4.70;99.90;;;;;;5049885;28;20063;-61
2021/12/06 12:50:22;;;;;;;63.35;24.65;;;4.80;99.90;;;;;;5049191;28;20265;-61
2021/12/06 12:52:54;;;;;;;61.70;24.77;;;4.80;99.90;;;;;;5049655;28;20032;-61
2021/12/06 12:55:33;;;;;;;62.80;25.58;;;4.80;99.90;;;;;;5032398;28;20044;-61
2021/12/06 12:58:04;;;;;;;64.20;25.15;;;4.90;99.90;;;;;;5049770;28;20510;-61
2021/12/06 13:00:31;;;;;;;;;;;4.90;99.90;;;;;;5050368;28;20583;-61